Chiricana — 3EKU3 — position and weather

sailwx.info

Track history (hours):
 
Tides and Currents Weather Stations Pressure Air Temp Water Temp Dewpoint Dewpoint Depression Visibility Wind Speed Wind Dir Waves Ship Positions

Chiricana

Last reported at 2014-Aug-26 10:30 UTC. Time now 2014-Aug-27 15:10 UTC.
Position N 22°34' E 114°17'.

Length 300 m; draft 11.6 m.

Type: Ship (hazmat cat B). MMSI: 372829000.

Date/timePositionNaut miles runAvg speedWind from/ knotsBaromVisibWave heightAir tempDewpointWater temp
2014-Aug-26 10:30N 22°34' E 114°17'1 1.1
2014-Aug-26 09:24N 22°34' E 114°16'0 0.0
2014-Aug-26 08:24N 22°34' E 114°16'0 0.0
2014-Aug-26 07:30N 22°34' E 114°16'0 0.0
2014-Aug-26 06:30N 22°34' E 114°16'0 0.0
2014-Aug-26 05:30N 22°34' E 114°16'0 0.0
2014-Aug-26 04:30N 22°34' E 114°16'0 0.0
2014-Aug-26 03:30N 22°34' E 114°16'0 0.0
2014-Aug-26 02:30N 22°34' E 114°16'0 0.0
2014-Aug-26 01:30N 22°34' E 114°16'0 0.0
2014-Aug-26 00:30N 22°34' E 114°16'0 0.0
2014-Aug-25 23:30N 22°34' E 114°16'0 0.0
2014-Aug-25 22:30N 22°34' E 114°16'0 0.0
2014-Aug-25 21:30N 22°34' E 114°16'0 0.0
2014-Aug-25 20:24N 22°34' E 114°16'0 0.0
2014-Aug-25 19:30N 22°34' E 114°16'0 0.0
2014-Aug-25 18:24N 22°34' E 114°16'0 0.0
2014-Aug-25 17:18N 22°34' E 114°16'0 0.0
2014-Aug-25 16:30N 22°34' E 114°16'0 0.0
2014-Aug-25 15:30N 22°34' E 114°16'0 0.0
2014-Aug-25 14:24N 22°34' E 114°16'0 0.0
2014-Aug-25 13:30N 22°34' E 114°16'0 0.0
2014-Aug-25 12:30N 22°34' E 114°16'0 0.0
2014-Aug-25 11:30N 22°34' E 114°16'0 0.0
2014-Aug-25 10:30N 22°34' E 114°16'0 0.0
2014-Aug-25 09:30N 22°34' E 114°16'0 0.0
2014-Aug-25 08:30N 22°34' E 114°16'0 0.0
2014-Aug-25 07:30N 22°34' E 114°16'0 0.0
2014-Aug-25 06:25N 22°34' E 114°16'0 0.0
2014-Aug-25 05:30N 22°34' E 114°16'0 0.0
2014-Aug-25 04:29N 22°34' E 114°16'0 0.0
2014-Aug-25 03:30N 22°34' E 114°16'0 0.0
2014-Aug-25 02:30N 22°34' E 114°16'0 0.0
2014-Aug-25 01:29N 22°34' E 114°16'0 0.0
2014-Aug-25 00:30N 22°34' E 114°16'16 1.8
2014-Aug-24 15:31N 22°20' E 114°07'0 0.0
2014-Aug-24 08:15N 22°20' E 114°08'0 0.0
2014-Aug-23 22:03N 22°20' E 114°08'  
2014-Aug-18 20:10N 01°16' E 104°14'1016.6
2014-Aug-18 19:33N 01°14' E 104°04'1212.3
2014-Aug-18 18:33N 01°15' E 103°52'1 1.5
2014-Aug-18 17:33N 01°16' E 103°51'0 0.0
2014-Aug-18 16:33N 01°16' E 103°51'0 0.0
2014-Aug-18 15:33N 01°16' E 103°51'0 0.0
2014-Aug-18 14:30N 01°16' E 103°51'0 0.0
2014-Aug-18 13:33N 01°16' E 103°51'0 0.0
2014-Aug-18 12:33N 01°16' E 103°51'0 0.0
2014-Aug-18 11:33N 01°16' E 103°51'0 0.0
2014-Aug-18 10:33N 01°16' E 103°51'0 0.0
2014-Aug-18 09:33N 01°16' E 103°51'0 0.0
2014-Aug-18 08:33N 01°16' E 103°51'0 0.0
2014-Aug-18 07:33N 01°16' E 103°51'0 0.0
2014-Aug-18 06:30N 01°16' E 103°51'0 0.0
2014-Aug-18 05:33N 01°16' E 103°51'0 0.0
2014-Aug-18 04:33N 01°16' E 103°51'0 0.0
2014-Aug-18 03:33N 01°16' E 103°51'0 0.0
2014-Aug-18 02:33N 01°16' E 103°51'0 0.0
2014-Aug-18 01:33N 01°16' E 103°51'0 0.0
2014-Aug-18 00:33N 01°16' E 103°51'0 0.0
2014-Aug-17 18:33N 01°16' E 103°51'0 0.0
2014-Aug-17 17:33N 01°16' E 103°51'0 0.0
2014-Aug-17 16:33N 01°16' E 103°51'0 0.0
2014-Aug-17 15:33N 01°16' E 103°51'0 0.0
2014-Aug-17 14:33N 01°16' E 103°51'0 0.0
2014-Aug-17 13:33N 01°16' E 103°51'0 0.0
2014-Aug-17 12:33N 01°16' E 103°51'0 0.0
2014-Aug-17 11:30N 01°16' E 103°51'0 0.0
2014-Aug-17 10:33N 01°16' E 103°51'0 0.2
2014-Aug-17 09:33N 01°16' E 103°51'3 2.5
2014-Aug-17 08:33N 01°14' E 103°53'0 0.1
2014-Aug-17 07:33N 01°14' E 103°53'0 0.0
2014-Aug-17 06:33N 01°14' E 103°53'0 0.0
2014-Aug-17 05:33N 01°14' E 103°53'0 0.0
2014-Aug-17 04:33N 01°14' E 103°53'0 0.1
2014-Aug-17 03:33N 01°14' E 103°53'1 1.0
2014-Aug-17 02:34N 01°14' E 103°54'4 4.3
2014-Aug-17 01:34N 01°11' E 103°51'6 5.5
2014-Aug-17 00:32N 01°08' E 103°46'  
Track history (hours):
 
Tides and Currents Weather Stations Pressure Air Temp Water Temp Dewpoint Dewpoint Depression Visibility Wind Speed Wind Dir Waves Ship Positions

Chiricana

Last reported at 2014-Aug-26 10:30 UTC. Time now 2014-Aug-27 15:10 UTC.
Position N 22°34' E 114°17'.

Length 300 m; draft 11.6 m.

Type: Ship (hazmat cat B). MMSI: 372829000.

Date/timePositionNaut miles runAvg speedWind from/ knotsBaromVisibWave heightAir tempDewpointWater temp
2014-Aug-26 10:30N 22°34' E 114°17'1 1.1
2014-Aug-26 09:24N 22°34' E 114°16'0 0.0
2014-Aug-26 08:24N 22°34' E 114°16'0 0.0
2014-Aug-26 07:30N 22°34' E 114°16'0 0.0
2014-Aug-26 06:30N 22°34' E 114°16'0 0.0
2014-Aug-26 05:30N 22°34' E 114°16'0 0.0
2014-Aug-26 04:30N 22°34' E 114°16'0 0.0
2014-Aug-26 03:30N 22°34' E 114°16'0 0.0
2014-Aug-26 02:30N 22°34' E 114°16'0 0.0
2014-Aug-26 01:30N 22°34' E 114°16'0 0.0
2014-Aug-26 00:30N 22°34' E 114°16'0 0.0
2014-Aug-25 23:30N 22°34' E 114°16'0 0.0
2014-Aug-25 22:30N 22°34' E 114°16'0 0.0
2014-Aug-25 21:30N 22°34' E 114°16'0 0.0
2014-Aug-25 20:24N 22°34' E 114°16'0 0.0
2014-Aug-25 19:30N 22°34' E 114°16'0 0.0
2014-Aug-25 18:24N 22°34' E 114°16'0 0.0
2014-Aug-25 17:18N 22°34' E 114°16'0 0.0
2014-Aug-25 16:30N 22°34' E 114°16'0 0.0
2014-Aug-25 15:30N 22°34' E 114°16'0 0.0
2014-Aug-25 14:24N 22°34' E 114°16'0 0.0
2014-Aug-25 13:30N 22°34' E 114°16'0 0.0
2014-Aug-25 12:30N 22°34' E 114°16'0 0.0
2014-Aug-25 11:30N 22°34' E 114°16'0 0.0
2014-Aug-25 10:30N 22°34' E 114°16'0 0.0
2014-Aug-25 09:30N 22°34' E 114°16'0 0.0
2014-Aug-25 08:30N 22°34' E 114°16'0 0.0
2014-Aug-25 07:30N 22°34' E 114°16'0 0.0
2014-Aug-25 06:25N 22°34' E 114°16'0 0.0
2014-Aug-25 05:30N 22°34' E 114°16'0 0.0
2014-Aug-25 04:29N 22°34' E 114°16'0 0.0
2014-Aug-25 03:30N 22°34' E 114°16'0 0.0
2014-Aug-25 02:30N 22°34' E 114°16'0 0.0
2014-Aug-25 01:29N 22°34' E 114°16'0 0.0
2014-Aug-25 00:30N 22°34' E 114°16'16 1.8
2014-Aug-24 15:31N 22°20' E 114°07'0 0.0
2014-Aug-24 08:15N 22°20' E 114°08'0 0.0
2014-Aug-23 22:03N 22°20' E 114°08'  
2014-Aug-18 20:10N 01°16' E 104°14'1016.6
2014-Aug-18 19:33N 01°14' E 104°04'1212.3
2014-Aug-18 18:33N 01°15' E 103°52'1 1.5
2014-Aug-18 17:33N 01°16' E 103°51'0 0.0
2014-Aug-18 16:33N 01°16' E 103°51'0 0.0
2014-Aug-18 15:33N 01°16' E 103°51'0 0.0
2014-Aug-18 14:30N 01°16' E 103°51'0 0.0
2014-Aug-18 13:33N 01°16' E 103°51'0 0.0
2014-Aug-18 12:33N 01°16' E 103°51'0 0.0
2014-Aug-18 11:33N 01°16' E 103°51'0 0.0
2014-Aug-18 10:33N 01°16' E 103°51'0 0.0
2014-Aug-18 09:33N 01°16' E 103°51'0 0.0
2014-Aug-18 08:33N 01°16' E 103°51'0 0.0
2014-Aug-18 07:33N 01°16' E 103°51'0 0.0
2014-Aug-18 06:30N 01°16' E 103°51'0 0.0
2014-Aug-18 05:33N 01°16' E 103°51'0 0.0
2014-Aug-18 04:33N 01°16' E 103°51'0 0.0
2014-Aug-18 03:33N 01°16' E 103°51'0 0.0
2014-Aug-18 02:33N 01°16' E 103°51'0 0.0
2014-Aug-18 01:33N 01°16' E 103°51'0 0.0
2014-Aug-18 00:33N 01°16' E 103°51'0 0.0
2014-Aug-17 18:33N 01°16' E 103°51'0 0.0
2014-Aug-17 17:33N 01°16' E 103°51'0 0.0
2014-Aug-17 16:33N 01°16' E 103°51'0 0.0
2014-Aug-17 15:33N 01°16' E 103°51'0 0.0
2014-Aug-17 14:33N 01°16' E 103°51'0 0.0
2014-Aug-17 13:33N 01°16' E 103°51'0 0.0
2014-Aug-17 12:33N 01°16' E 103°51'0 0.0
2014-Aug-17 11:30N 01°16' E 103°51'0 0.0
2014-Aug-17 10:33N 01°16' E 103°51'0 0.2
2014-Aug-17 09:33N 01°16' E 103°51'3 2.5
2014-Aug-17 08:33N 01°14' E 103°53'0 0.1
2014-Aug-17 07:33N 01°14' E 103°53'0 0.0
2014-Aug-17 06:33N 01°14' E 103°53'0 0.0
2014-Aug-17 05:33N 01°14' E 103°53'0 0.0
2014-Aug-17 04:33N 01°14' E 103°53'0 0.1
2014-Aug-17 03:33N 01°14' E 103°53'1 1.0
2014-Aug-17 02:34N 01°14' E 103°54'4 4.3
2014-Aug-17 01:34N 01°11' E 103°51'6 5.5
2014-Aug-17 00:32N 01°08' E 103°46'  

Dump ship's entire track history